Time;durP1;ratioP1;P1;durP2;ratioP2;P2;SDS_P1;SDS_P2;PMS_P1;PMS_P2;Temp;Humidity;BMP_temperature;BMP_pressure;BME280_temperature;BME280_humidity;BME280_pressure;Samples;Min_cycle;Max_cycle;Signal;HPM_P1;HPM_P2
2021/06/26 00:02:04;;;;;;;24.80;13.27;;;15.50;99.90;;;;;;5036187;28;20025;-75
2021/06/26 00:04:30;;;;;;;25.38;13.25;;;15.40;99.90;;;;;;5054125;28;20036;-75
2021/06/26 00:06:55;;;;;;;26.17;14.32;;;15.50;99.90;;;;;;5054033;28;20024;-75
2021/06/26 00:09:21;;;;;;;27.00;13.98;;;15.50;99.90;;;;;;5036153;28;20075;-75
2021/06/26 00:11:48;;;;;;;30.50;14.75;;;15.50;99.90;;;;;;5053988;28;20028;-75
2021/06/26 00:14:14;;;;;;;27.50;15.05;;;15.50;99.90;;;;;;5054037;28;20013;-75
2021/06/26 00:16:40;;;;;;;28.65;14.85;;;15.50;99.90;;;;;;5053897;28;20031;-75
2021/06/26 00:19:05;;;;;;;26.77;15.07;;;15.60;99.90;;;;;;5053705;28;20025;-75
2021/06/26 00:21:31;;;;;;;26.60;14.80;;;15.60;99.90;;;;;;5053873;28;20017;-75
2021/06/26 00:23:56;;;;;;;29.98;15.35;;;15.60;99.90;;;;;;5054320;28;20021;-75
2021/06/26 00:26:22;;;;;;;30.70;14.48;;;15.70;99.90;;;;;;5053560;28;20055;-75
2021/06/26 00:28:48;;;;;;;28.77;15.20;;;15.70;99.90;;;;;;5053770;28;20078;-76
2021/06/26 00:31:14;;;;;;;29.75;15.48;;;15.70;99.90;;;;;;5052848;28;20505;-75
2021/06/26 00:33:40;;;;;;;25.52;13.07;;;15.70;99.90;;;;;;5053474;28;20111;-75
2021/06/26 00:36:06;;;;;;;26.05;13.45;;;15.70;99.90;;;;;;5053640;28;20104;-75
2021/06/26 00:38:31;;;;;;;27.50;14.48;;;15.70;99.90;;;;;;5053410;28;20021;-75
2021/06/26 00:40:57;;;;;;;25.90;14.32;;;15.70;99.90;;;;;;5053472;28;20052;-75
2021/06/26 00:43:23;;;;;;;26.27;13.90;;;15.70;99.90;;;;;;5053617;28;20474;-74
2021/06/26 00:45:49;;;;;;;28.83;15.02;;;15.70;99.90;;;;;;5054048;28;20026;-74
2021/06/26 00:48:15;;;;;;;30.23;13.93;;;15.70;99.90;;;;;;5053170;28;20044;-74
2021/06/26 00:50:40;;;;;;;29.17;14.20;;;15.70;99.90;;;;;;5053312;28;20070;-74
2021/06/26 00:53:06;;;;;;;27.33;14.55;;;15.80;99.90;;;;;;5053811;28;20480;-74
2021/06/26 00:55:31;;;;;;;29.42;15.93;;;15.80;99.90;;;;;;5053158;28;20036;-74
2021/06/26 00:57:58;;;;;;;27.20;14.63;;;15.80;99.90;;;;;;5053056;28;20025;-74
2021/06/26 01:00:32;;;;;;;26.55;15.13;;;15.80;99.90;;;;;;5053205;28;20355;-74
2021/06/26 01:02:59;;;;;;;29.13;14.07;;;15.80;99.90;;;;;;5053131;28;20496;-74
2021/06/26 01:05:25;;;;;;;28.45;14.27;;;15.80;99.90;;;;;;5035362;28;20031;-74
2021/06/26 01:07:52;;;;;;;28.10;14.27;;;15.80;99.90;;;;;;5035273;28;20472;-74
2021/06/26 01:10:18;;;;;;;29.55;14.88;;;15.80;99.90;;;;;;5035241;28;20031;-74
2021/06/26 01:12:44;;;;;;;29.20;15.35;;;15.90;99.90;;;;;;5053105;28;20079;-74
2021/06/26 01:15:11;;;;;;;28.55;14.93;;;15.90;99.90;;;;;;5035162;28;20032;-74
2021/06/26 01:17:37;;;;;;;26.95;14.25;;;15.80;99.90;;;;;;5052983;28;20017;-74
2021/06/26 01:20:04;;;;;;;27.50;13.60;;;15.80;99.90;;;;;;5052993;28;20048;-74
2021/06/26 01:22:35;;;;;;;35.25;15.93;;;15.80;99.90;;;;;;5057355;28;20033;-74
2021/06/26 01:25:00;;;;;;;26.83;14.20;;;15.80;99.90;;;;;;5072865;28;20020;-74
2021/06/26 01:27:26;;;;;;;30.70;14.80;;;15.80;99.90;;;;;;5072976;28;20043;-74
2021/06/26 01:29:53;;;;;;;28.98;14.95;;;15.80;99.90;;;;;;5072728;28;20021;-74
2021/06/26 01:32:20;;;;;;;25.83;14.25;;;15.80;99.90;;;;;;5072391;28;20095;-74
2021/06/26 01:34:46;;;;;;;27.90;14.32;;;15.80;99.90;;;;;;5072812;28;20162;-74
2021/06/26 01:37:13;;;;;;;26.52;13.48;;;15.80;99.90;;;;;;5073440;28;20482;-74
2021/06/26 01:39:39;;;;;;;30.67;14.80;;;15.90;99.90;;;;;;5054742;28;20478;-74
2021/06/26 01:42:05;;;;;;;27.33;12.73;;;15.80;99.90;;;;;;5054862;28;20024;-74
2021/06/26 01:44:31;;;;;;;29.42;14.15;;;15.80;99.90;;;;;;5076267;28;20064;-74
2021/06/26 01:46:56;;;;;;;27.63;14.23;;;15.80;99.90;;;;;;5076558;28;20099;-74
2021/06/26 01:49:22;;;;;;;30.73;14.60;;;15.80;99.90;;;;;;5076525;28;20033;-74
2021/06/26 01:51:47;;;;;;;27.63;13.80;;;15.70;99.90;;;;;;5076819;28;20496;-75
2021/06/26 01:54:13;;;;;;;25.75;13.57;;;15.70;99.90;;;;;;5076312;28;20020;-75
2021/06/26 01:56:39;;;;;;;29.10;13.55;;;15.70;99.90;;;;;;5058503;28;20029;-75
2021/06/26 01:59:06;;;;;;;29.10;13.88;;;15.70;99.90;;;;;;5076224;28;20389;-75
2021/06/26 02:01:35;;;;;;;26.23;12.95;;;15.70;99.90;;;;;;5076239;28;20017;-75
2021/06/26 02:04:01;;;;;;;30.27;14.55;;;15.70;99.90;;;;;;5076544;28;20040;-75
2021/06/26 02:06:27;;;;;;;26.75;13.07;;;15.70;99.90;;;;;;5076329;28;20021;-75
2021/06/26 02:08:52;;;;;;;31.35;14.52;;;15.70;99.90;;;;;;5058157;28;20390;-75
2021/06/26 02:11:18;;;;;;;25.25;12.70;;;15.70;99.90;;;;;;5076143;28;20101;-75
2021/06/26 02:13:43;;;;;;;28.00;14.40;;;15.70;99.90;;;;;;5076098;28;20046;-75
2021/06/26 02:16:09;;;;;;;27.38;13.10;;;15.80;99.90;;;;;;5058054;28;20024;-75
2021/06/26 02:18:35;;;;;;;27.88;14.63;;;15.80;99.90;;;;;;5076163;28;20016;-74
2021/06/26 02:21:01;;;;;;;25.05;13.20;;;15.80;99.90;;;;;;5076279;28;20017;-74
2021/06/26 02:23:27;;;;;;;27.38;13.10;;;15.80;99.90;;;;;;5075940;28;20376;-74
2021/06/26 02:25:53;;;;;;;29.23;14.40;;;15.80;99.90;;;;;;5075886;28;20027;-74
2021/06/26 02:28:19;;;;;;;25.98;13.95;;;15.80;99.90;;;;;;5075723;28;20095;-74
2021/06/26 02:30:44;;;;;;;28.05;14.25;;;15.80;99.90;;;;;;5057847;28;20032;-74
2021/06/26 02:33:10;;;;;;;30.05;14.63;;;15.80;99.90;;;;;;5075743;28;20023;-74
2021/06/26 02:35:38;;;;;;;27.80;13.15;;;15.80;99.90;;;;;;5076083;28;20071;-74
2021/06/26 02:38:04;;;;;;;28.38;15.20;;;15.80;99.90;;;;;;5075596;28;20051;-74
2021/06/26 02:40:31;;;;;;;27.25;13.73;;;15.80;99.90;;;;;;5057593;28;20048;-74
2021/06/26 02:42:57;;;;;;;29.10;14.15;;;15.80;99.90;;;;;;5075472;28;20103;-74
2021/06/26 02:45:22;;;;;;;30.73;15.25;;;15.80;99.90;;;;;;5075788;28;20112;-74
2021/06/26 02:47:48;;;;;;;32.97;15.63;;;15.80;99.90;;;;;;5076067;28;20086;-76
2021/06/26 02:50:14;;;;;;;28.88;14.15;;;15.80;99.90;;;;;;5075905;28;20025;-76
2021/06/26 02:52:39;;;;;;;35.72;15.18;;;15.90;99.90;;;;;;5057691;28;20020;-74
2021/06/26 02:55:06;;;;;;;29.27;13.90;;;15.80;99.90;;;;;;5075299;28;20031;-74
2021/06/26 02:57:31;;;;;;;27.52;14.07;;;15.90;99.90;;;;;;5075475;28;20086;-74
2021/06/26 02:59:57;;;;;;;26.55;13.77;;;15.80;99.90;;;;;;5076226;28;20024;-74
2021/06/26 03:02:25;;;;;;;25.42;13.68;;;15.80;99.90;;;;;;5076233;28;20021;-75
2021/06/26 03:04:51;;;;;;;30.65;15.73;;;15.90;99.90;;;;;;5056829;28;20404;-75
2021/06/26 03:07:16;;;;;;;30.58;15.80;;;15.80;99.90;;;;;;5057753;28;20108;-75
2021/06/26 03:09:42;;;;;;;30.27;15.52;;;15.80;99.90;;;;;;5075585;28;20021;-75
2021/06/26 03:12:08;;;;;;;31.92;15.70;;;15.80;99.90;;;;;;5075623;28;20115;-75
2021/06/26 03:14:34;;;;;;;27.50;14.88;;;15.80;99.90;;;;;;5076336;28;20021;-74
2021/06/26 03:16:59;;;;;;;30.33;14.77;;;15.80;99.90;;;;;;5057871;28;20047;-74
2021/06/26 03:19:25;;;;;;;30.30;14.52;;;15.90;99.90;;;;;;5075607;28;20030;-74
2021/06/26 03:21:50;;;;;;;32.72;15.70;;;15.80;99.90;;;;;;5057505;28;20032;-75
2021/06/26 03:24:16;;;;;;;29.35;15.38;;;15.80;99.90;;;;;;5075041;28;20489;-75
2021/06/26 03:26:42;;;;;;;26.70;14.02;;;15.80;99.90;;;;;;5074989;28;20037;-76
2021/06/26 03:29:07;;;;;;;29.77;16.10;;;15.80;99.90;;;;;;5075105;28;20449;-76
2021/06/26 03:31:33;;;;;;;29.80;15.45;;;15.80;99.90;;;;;;5074904;28;20150;-76
2021/06/26 03:33:59;;;;;;;32.05;15.45;;;15.80;99.90;;;;;;5075360;28;20031;-76
2021/06/26 03:36:25;;;;;;;30.85;16.00;;;15.80;99.90;;;;;;5074787;28;20020;-75
2021/06/26 03:38:51;;;;;;;30.23;14.80;;;15.80;99.90;;;;;;5074915;28;20016;-76
2021/06/26 03:41:19;;;;;;;31.55;15.55;;;15.80;99.90;;;;;;5076008;28;20546;-75
2021/06/26 03:43:44;;;;;;;28.45;14.82;;;15.80;99.90;;;;;;5056796;28;20017;-75
2021/06/26 03:46:10;;;;;;;33.20;15.68;;;15.80;99.90;;;;;;5058167;28;20030;-75
2021/06/26 03:48:35;;;;;;;29.80;15.65;;;15.70;99.90;;;;;;5075100;28;20063;-75
2021/06/26 03:51:02;;;;;;;28.88;16.10;;;15.70;99.90;;;;;;5074808;28;20028;-76
2021/06/26 03:53:28;;;;;;;30.40;16.23;;;15.70;99.90;;;;;;5075037;28;20422;-74
2021/06/26 03:55:54;;;;;;;27.33;14.52;;;15.70;99.90;;;;;;5057383;28;20020;-74
2021/06/26 03:58:24;;;;;;;31.10;16.23;;;15.70;99.90;;;;;;5075072;28;20486;-74
2021/06/26 04:00:50;;;;;;;28.15;15.00;;;15.70;99.90;;;;;;5074938;28;20025;-74
2021/06/26 04:03:16;;;;;;;31.10;15.65;;;15.70;99.90;;;;;;5075114;28;20033;-74
2021/06/26 04:05:43;;;;;;;33.00;17.15;;;15.70;99.90;;;;;;5056795;28;20027;-75
2021/06/26 04:08:09;;;;;;;31.13;15.60;;;15.70;99.90;;;;;;5056122;28;20082;-75
2021/06/26 04:10:35;;;;;;;31.85;15.82;;;15.70;99.90;;;;;;5056330;28;20024;-75
2021/06/26 04:13:00;;;;;;;31.38;15.95;;;15.70;99.90;;;;;;5074255;28;20031;-75
2021/06/26 04:15:26;;;;;;;32.78;16.00;;;15.70;99.90;;;;;;5074098;28;20066;-75
2021/06/26 04:17:51;;;;;;;30.80;15.43;;;15.70;99.90;;;;;;5074460;28;20013;-75
2021/06/26 04:20:17;;;;;;;30.98;15.68;;;15.70;99.90;;;;;;5075162;28;20162;-75
2021/06/26 04:22:45;;;;;;;32.65;16.65;;;15.80;99.90;;;;;;5074715;28;20013;-75
2021/06/26 04:25:14;;;;;;;34.42;15.77;;;15.80;99.90;;;;;;5057053;28;20020;-75
2021/06/26 04:27:40;;;;;;;36.55;17.17;;;15.80;99.90;;;;;;5075419;28;20047;-75
2021/06/26 04:30:07;;;;;;;34.30;16.88;;;15.80;99.90;;;;;;5073744;28;20485;-76
2021/06/26 04:32:35;;;;;;;34.63;16.92;;;15.80;99.90;;;;;;5055842;28;20020;-76
2021/06/26 04:35:01;;;;;;;32.17;16.13;;;15.80;99.90;;;;;;5055633;28;20028;-76
2021/06/26 04:37:26;;;;;;;33.30;16.55;;;15.80;99.90;;;;;;5073710;28;20028;-76
2021/06/26 04:39:52;;;;;;;29.10;15.55;;;15.80;99.90;;;;;;5074165;28;20481;-76
2021/06/26 04:42:17;;;;;;;28.45;15.65;;;15.80;99.90;;;;;;5055843;28;20024;-75
2021/06/26 04:44:43;;;;;;;31.73;16.90;;;15.90;99.90;;;;;;5073862;28;20031;-76
2021/06/26 04:47:09;;;;;;;32.50;16.17;;;15.90;99.90;;;;;;5073831;28;20093;-76
2021/06/26 04:49:35;;;;;;;30.35;15.50;;;15.90;99.90;;;;;;5073355;28;20040;-76
2021/06/26 04:52:02;;;;;;;31.60;16.63;;;15.90;99.90;;;;;;5055492;28;20079;-74
2021/06/26 04:54:28;;;;;;;27.30;14.63;;;16.00;99.90;;;;;;5056307;28;20424;-75
2021/06/26 04:56:53;;;;;;;34.53;17.38;;;16.00;99.90;;;;;;5073796;28;20020;-75
2021/06/26 04:59:19;;;;;;;35.35;16.42;;;16.10;99.90;;;;;;5074254;28;20430;-75
2021/06/26 05:01:44;;;;;;;35.83;17.02;;;16.10;99.90;;;;;;5056526;28;20108;-75
2021/06/26 05:04:10;;;;;;;32.53;16.75;;;16.10;99.90;;;;;;5056385;28;20116;-75
2021/06/26 05:06:35;;;;;;;32.72;16.55;;;16.20;99.90;;;;;;5055860;28;20111;-75
2021/06/26 05:09:01;;;;;;;31.75;16.58;;;16.20;99.90;;;;;;5073665;28;20066;-75
2021/06/26 05:11:26;;;;;;;34.15;18.27;;;16.30;99.90;;;;;;5073957;28;20036;-76
2021/06/26 05:13:52;;;;;;;33.38;16.35;;;16.30;99.90;;;;;;5074182;28;20387;-76
2021/06/26 05:16:18;;;;;;;35.58;17.67;;;16.40;99.90;;;;;;5073623;28;20119;-75
2021/06/26 05:18:43;;;;;;;32.83;17.15;;;16.50;99.90;;;;;;5058216;28;20531;-76
2021/06/26 05:21:09;;;;;;;30.27;17.10;;;16.50;99.90;;;;;;5077938;28;20024;-75
2021/06/26 05:23:34;;;;;;;33.47;16.48;;;16.50;99.90;;;;;;5078027;28;20025;-75
2021/06/26 05:26:00;;;;;;;32.47;16.35;;;16.60;99.90;;;;;;5059967;28;20052;-75
2021/06/26 05:28:26;;;;;;;30.92;16.55;;;16.60;99.90;;;;;;5059618;28;20035;-75
2021/06/26 05:30:51;;;;;;;27.80;15.35;;;16.70;99.90;;;;;;5077395;28;20024;-75
2021/06/26 05:33:17;;;;;;;29.95;15.82;;;16.70;99.90;;;;;;5060897;28;20043;-75
2021/06/26 05:35:43;;;;;;;29.17;16.63;;;16.70;99.90;;;;;;5060382;28;20028;-76
2021/06/26 05:38:09;;;;;;;28.85;14.50;;;16.70;99.90;;;;;;5076953;28;20029;-75
2021/06/26 05:40:35;;;;;;;27.40;15.25;;;16.70;99.90;;;;;;5059138;28;20050;-75
2021/06/26 05:43:01;;;;;;;34.13;17.20;;;16.80;99.90;;;;;;5077885;28;20470;-75
2021/06/26 05:45:26;;;;;;;34.28;15.85;;;17.00;99.90;;;;;;5077413;28;20481;-75
2021/06/26 05:47:52;;;;;;;34.70;16.45;;;17.10;99.90;;;;;;5076887;28;20082;-75
2021/06/26 05:50:17;;;;;;;27.88;14.82;;;17.20;99.90;;;;;;5076829;28;20056;-74
2021/06/26 05:52:45;;;;;;;29.58;15.48;;;17.30;99.90;;;;;;5077388;28;20107;-74
2021/06/26 05:55:10;;;;;;;26.63;14.55;;;17.40;99.90;;;;;;5076713;28;20039;-75
2021/06/26 05:57:36;;;;;;;29.50;15.00;;;17.50;99.90;;;;;;5077790;28;20024;-75
2021/06/26 06:00:04;;;;;;;29.85;14.38;;;17.60;99.90;;;;;;5059852;28;20020;-75
2021/06/26 06:02:29;;;;;;;26.45;15.25;;;17.70;99.90;;;;;;5077370;28;20024;-75
2021/06/26 06:04:55;;;;;;;25.77;13.73;;;17.80;99.90;;;;;;5076860;28;20031;-75
2021/06/26 06:07:20;;;;;;;25.90;13.05;;;17.90;99.90;;;;;;5076521;28;20020;-75
2021/06/26 06:09:46;;;;;;;23.80;13.02;;;17.90;99.90;;;;;;5058548;28;20021;-75
2021/06/26 06:12:12;;;;;;;20.58;11.57;;;18.00;99.90;;;;;;5076500;28;20103;-75
2021/06/26 06:14:37;;;;;;;21.60;11.88;;;18.00;99.90;;;;;;5076902;28;20028;-75
2021/06/26 06:17:03;;;;;;;21.17;10.90;;;18.00;99.90;;;;;;5076729;28;20032;-75
2021/06/26 06:19:28;;;;;;;24.98;11.82;;;18.10;99.90;;;;;;5077293;28;20492;-75
2021/06/26 06:21:54;;;;;;;21.88;11.68;;;18.20;99.90;;;;;;5076108;28;20062;-76
2021/06/26 06:24:19;;;;;;;22.33;11.23;;;18.30;99.90;;;;;;5076279;28;20024;-76
2021/06/26 06:26:45;;;;;;;22.23;12.10;;;18.30;99.90;;;;;;5076084;28;20017;-76
2021/06/26 06:29:10;;;;;;;21.30;12.02;;;18.40;99.90;;;;;;5074844;28;20025;-76
2021/06/26 06:31:36;;;;;;;29.25;12.95;;;18.40;99.90;;;;;;5057833;28;20428;-76
2021/06/26 06:34:02;;;;;;;25.70;11.85;;;18.50;99.90;;;;;;5058702;28;20028;-76
2021/06/26 06:36:27;;;;;;;20.17;11.50;;;18.60;99.90;;;;;;5057675;28;20021;-76
2021/06/26 06:38:53;;;;;;;19.20;10.27;;;18.60;99.90;;;;;;5075967;28;20024;-76
2021/06/26 06:41:19;;;;;;;23.80;11.18;;;18.70;99.90;;;;;;5075627;28;20024;-75
2021/06/26 06:43:46;;;;;;;21.95;11.57;;;18.70;99.90;;;;;;5057772;28;20067;-75
2021/06/26 06:46:13;;;;;;;20.20;10.55;;;18.80;99.90;;;;;;5076232;28;20032;-76
2021/06/26 06:48:38;;;;;;;21.45;10.95;;;18.80;99.90;;;;;;5052443;22;20038;-79
2021/06/26 06:51:04;;;;;;;20.00;9.50;;;18.90;99.90;;;;;;5026786;28;20022;-79
2021/06/26 06:53:30;;;;;;;20.88;10.65;;;19.00;99.90;;;;;;5023552;28;20030;-78
2021/06/26 06:55:58;;;;;;;18.92;10.52;;;19.10;99.90;;;;;;5026814;28;20034;-80
2021/06/26 06:58:24;;;;;;;17.70;9.57;;;19.20;99.90;;;;;;5029002;28;20092;-79
2021/06/26 07:00:50;;;;;;;19.02;10.40;;;19.20;99.90;;;;;;5028243;28;20022;-79
2021/06/26 07:03:16;;;;;;;21.88;10.95;;;19.30;99.90;;;;;;5030728;28;20029;-79
2021/06/26 07:05:42;;;;;;;16.80;9.98;;;19.40;99.90;;;;;;5029748;28;20084;-79
2021/06/26 07:08:08;;;;;;;20.17;10.27;;;19.40;99.90;;;;;;5030432;28;20018;-79
2021/06/26 07:10:34;;;;;;;16.52;8.75;;;19.50;99.90;;;;;;5030464;28;20037;-79
2021/06/26 07:12:59;;;;;;;20.92;11.13;;;19.50;99.90;;;;;;5030881;28;20077;-80
2021/06/26 07:15:25;;;;;;;19.17;9.95;;;19.50;99.90;;;;;;5029738;28;20032;-80
2021/06/26 07:17:51;;;;;;;17.75;8.95;;;19.50;99.90;;;;;;5030114;28;20086;-79
2021/06/26 07:20:16;;;;;;;16.63;9.45;;;19.40;99.90;;;;;;5011656;28;20021;-79
2021/06/26 07:22:42;;;;;;;18.63;10.27;;;19.30;99.90;;;;;;5010678;28;20029;-79
2021/06/26 07:25:08;;;;;;;18.58;9.75;;;19.20;99.90;;;;;;5010783;28;20033;-79
2021/06/26 07:27:33;;;;;;;16.85;10.15;;;19.20;99.90;;;;;;5010839;28;20356;-79
2021/06/26 07:29:59;;;;;;;16.15;9.63;;;19.50;99.90;;;;;;5026394;28;20034;-79
2021/06/26 07:32:25;;;;;;;18.17;9.30;;;19.50;99.90;;;;;;5026069;28;20034;-80
2021/06/26 07:34:50;;;;;;;17.25;9.48;;;19.70;99.90;;;;;;5008849;28;20031;-79
2021/06/26 07:37:16;;;;;;;18.15;9.40;;;20.00;99.90;;;;;;5027945;28;20033;-79
2021/06/26 07:39:42;;;;;;;17.33;10.05;;;20.20;99.90;;;;;;5009866;28;20031;-79
2021/06/26 07:42:07;;;;;;;16.95;9.25;;;20.20;99.90;;;;;;5008272;28;20480;-79
2021/06/26 07:44:33;;;;;;;15.35;8.73;;;20.30;99.90;;;;;;5008812;28;20032;-78
2021/06/26 07:46:59;;;;;;;19.60;9.23;;;20.30;99.90;;;;;;5010136;28;20118;-79
2021/06/26 07:49:24;;;;;;;18.27;10.57;;;20.40;99.90;;;;;;5010566;28;20030;-79
2021/06/26 07:51:50;;;;;;;15.15;8.57;;;20.20;99.90;;;;;;4999270;28;20038;-78
2021/06/26 07:54:18;;;;;;;17.50;9.15;;;20.30;99.90;;;;;;4995363;28;20138;-78
2021/06/26 07:56:45;;;;;;;14.75;8.70;;;20.30;99.90;;;;;;4995079;28;20019;-77
2021/06/26 07:59:11;;;;;;;13.63;7.47;;;20.30;99.90;;;;;;4994805;28;20025;-77
2021/06/26 08:01:36;;;;;;;14.70;7.40;;;20.40;99.90;;;;;;4994811;28;20455;-77
2021/06/26 08:04:02;;;;;;;15.13;8.80;;;20.40;99.90;;;;;;4995078;28;20023;-78
2021/06/26 08:06:28;;;;;;;14.65;8.32;;;20.50;99.90;;;;;;4994904;28;20025;-77
2021/06/26 08:08:54;;;;;;;15.15;9.02;;;20.60;99.90;;;;;;4994767;28;20073;-77
2021/06/26 08:11:20;;;;;;;15.10;8.45;;;20.70;99.90;;;;;;4995240;28;20031;-77
2021/06/26 08:13:47;;;;;;;14.23;7.85;;;20.80;99.90;;;;;;4993543;28;20033;-77
2021/06/26 08:16:12;;;;;;;14.15;8.13;;;21.00;99.90;;;;;;4994903;28;20022;-76
2021/06/26 08:18:38;;;;;;;13.63;8.27;;;21.20;99.90;;;;;;4995453;28;20109;-77
2021/06/26 08:21:04;;;;;;;16.30;8.85;;;21.60;99.90;;;;;;4996624;28;20033;-78
2021/06/26 08:23:30;;;;;;;14.02;7.20;;;22.00;99.90;;;;;;4996655;28;20022;-77
2021/06/26 08:25:55;;;;;;;14.85;8.65;;;22.40;99.90;;;;;;4995221;28;20022;-79
2021/06/26 08:28:25;;;;;;;11.77;6.97;;;22.60;99.90;;;;;;4995468;28;20097;-79
2021/06/26 08:30:51;;;;;;;11.70;6.28;;;22.80;99.90;;;;;;4996964;28;20121;-77
2021/06/26 08:33:17;;;;;;;10.70;6.80;;;22.80;99.90;;;;;;5014239;28;20084;-77
2021/06/26 08:35:42;;;;;;;12.20;6.03;;;22.90;99.90;;;;;;5013946;28;20371;-77
2021/06/26 08:38:08;;;;;;;10.05;6.30;;;23.10;99.90;;;;;;5013870;28;20097;-77
2021/06/26 08:40:37;;;;;;;12.18;6.47;;;23.30;99.90;;;;;;5013727;28;20025;-77
2021/06/26 08:43:02;;;;;;;12.23;6.45;;;23.50;99.90;;;;;;5013552;28;20474;-77
2021/06/26 08:45:28;;;;;;;11.10;6.40;;;23.70;99.90;;;;;;5012346;28;20033;-77
2021/06/26 08:47:55;;;;;;;12.45;5.57;;;23.80;99.90;;;;;;5013483;28;20049;-77
2021/06/26 08:50:24;;;;;;;12.45;6.43;;;24.00;99.90;;;;;;5003799;28;20042;-77
2021/06/26 08:52:49;;;;;;;8.27;5.43;;;24.10;99.90;;;;;;4994001;28;20026;-78
2021/06/26 08:55:16;;;;;;;10.40;5.75;;;25.00;99.90;;;;;;4997696;28;20030;-78
2021/06/26 08:57:44;;;;;;;10.43;5.75;;;24.50;99.90;;;;;;4995267;28;20015;-79
2021/06/26 09:00:12;;;;;;;10.93;6.73;;;24.50;99.90;;;;;;4996105;28;20482;-78
2021/06/26 09:02:38;;;;;;;10.77;6.07;;;24.60;99.90;;;;;;4992986;28;20045;-78
2021/06/26 09:05:05;;;;;;;8.30;5.18;;;24.30;99.90;;;;;;4994173;28;20058;-78
2021/06/26 09:07:33;;;;;;;11.48;5.97;;;24.20;99.60;;;;;;4993482;28;20037;-78
2021/06/26 09:10:13;;;;;;;9.07;5.10;;;24.10;99.90;;;;;;4998501;28;20045;-77
2021/06/26 09:12:39;;;;;;;12.15;5.88;;;24.20;99.90;;;;;;5014558;28;20034;-77
2021/06/26 09:15:08;;;;;;;9.18;5.82;;;24.30;99.90;;;;;;5013559;28;20037;-79
2021/06/26 09:17:34;;;;;;;10.20;5.60;;;24.30;99.90;;;;;;5014648;28;20033;-79
2021/06/26 09:20:07;;;;;;;7.65;5.50;;;24.50;99.90;;;;;;5013523;28;20049;-78
2021/06/26 09:22:51;;;;;;;11.57;5.70;;;24.40;99.80;;;;;;5013593;28;20368;-78
2021/06/26 09:25:26;;;;;;;11.60;5.70;;;24.50;99.70;;;;;;5014060;28;20030;-78
2021/06/26 09:27:52;;;;;;;8.45;5.93;;;24.60;99.70;;;;;;5013968;28;20038;-78
2021/06/26 09:30:18;;;;;;;11.55;6.05;;;24.70;99.40;;;;;;5012356;28;20033;-78
2021/06/26 09:32:51;;;;;;;10.75;6.00;;;24.70;99.30;;;;;;5013379;28;20487;-78
2021/06/26 09:35:17;;;;;;;8.80;5.80;;;24.80;98.50;;;;;;5013305;28;20113;-78
2021/06/26 09:37:42;;;;;;;9.90;6.05;;;24.90;98.50;;;;;;5013693;28;20463;-78
2021/06/26 09:40:11;;;;;;;13.02;5.70;;;25.00;97.70;;;;;;5012038;28;20033;-78
2021/06/26 09:42:39;;;;;;;13.32;5.97;;;24.90;95.30;;;;;;5012359;28;20398;-78
2021/06/26 09:45:12;;;;;;;11.20;6.15;;;24.70;96.80;;;;;;5013242;28;20017;-78
2021/06/26 09:47:39;;;;;;;9.35;4.90;;;24.50;97.10;;;;;;5011787;28;20045;-78
2021/06/26 09:50:21;;;;;;;7.65;4.80;;;24.50;96.80;;;;;;5014482;28;20030;-78
2021/06/26 09:52:54;;;;;;;9.15;5.05;;;24.50;94.50;;;;;;5012181;28;20029;-78
2021/06/26 09:55:39;;;;;;;9.60;5.38;;;24.50;91.90;;;;;;5015248;28;20450;-79
2021/06/26 09:58:10;;;;;;;10.25;5.43;;;24.40;92.30;;;;;;5014557;28;20081;-78
2021/06/26 10:00:38;;;;;;;10.52;6.57;;;24.70;92.80;;;;;;5015852;28;20383;-78
2021/06/26 10:03:04;;;;;;;9.50;6.00;;;24.40;93.30;;;;;;5015446;28;20026;-79
2021/06/26 10:05:32;;;;;;;11.52;6.50;;;24.30;93.60;;;;;;5016119;28;20072;-78
2021/06/26 10:08:02;;;;;;;10.93;6.50;;;24.30;94.00;;;;;;5018745;28;20022;-79
2021/06/26 10:10:27;;;;;;;9.15;5.28;;;24.50;94.00;;;;;;5020930;28;20026;-79
2021/06/26 10:12:55;;;;;;;10.32;6.22;;;24.80;93.30;;;;;;5019784;28;20501;-77
2021/06/26 10:15:23;;;;;;;8.63;5.00;;;25.20;92.40;;;;;;5018551;28;20030;-79
2021/06/26 10:17:52;;;;;;;9.03;4.40;;;25.40;91.30;;;;;;5000415;28;20034;-82
2021/06/26 10:20:20;;;;;;;11.13;6.32;;;25.80;89.40;;;;;;5000757;28;20028;-79
2021/06/26 10:22:58;;;;;;;;;;;26.10;87.80;;;;;;5003013;28;20027;-79
2021/06/26 10:25:30;;;;;;;11.63;5.38;;;26.20;85.60;;;;;;5003715;28;19941;-78
2021/06/26 10:28:07;;;;;;;6.80;4.22;;;26.30;85.60;;;;;;5022093;28;20029;-79
2021/06/26 10:30:33;;;;;;;9.07;5.05;;;26.30;84.50;;;;;;5022066;28;20053;-79
2021/06/26 10:33:01;;;;;;;13.65;5.45;;;26.30;86.10;;;;;;5020612;28;20084;-78
2021/06/26 10:35:30;;;;;;;8.05;4.90;;;26.30;82.70;;;;;;5018668;28;20372;-80
2021/06/26 10:38:01;;;;;;;10.45;5.70;;;26.30;82.50;;;;;;5014372;28;20105;-79
2021/06/26 10:40:44;;;;;;;8.82;4.03;;;26.20;81.40;;;;;;4998995;28;20085;-79
2021/06/26 10:43:16;;;;;;;12.82;5.40;;;26.10;83.70;;;;;;4998639;28;20038;-79
2021/06/26 10:45:42;;;;;;;9.20;4.72;;;26.20;80.10;;;;;;4999707;28;20053;-79
2021/06/26 10:48:26;;;;;;;4.70;3.45;;;26.50;80.10;;;;;;4998787;28;20035;-78
2021/06/26 10:50:54;;;;;;;6.00;3.13;;;26.60;77.60;;;;;;5009861;28;20041;-81
2021/06/26 10:53:41;;;;;;;7.10;3.22;;;26.80;75.80;;;;;;5011080;28;20491;-78
2021/06/26 10:56:16;;;;;;;10.02;4.10;;;26.80;72.20;;;;;;5019361;28;20056;-78
2021/06/26 10:58:46;;;;;;;8.10;3.60;;;27.00;73.30;;;;;;5016798;28;20399;-78
2021/06/26 11:01:13;;;;;;;9.35;5.03;;;27.20;70.80;;;;;;5020480;28;20034;-79
2021/06/26 11:03:39;;;;;;;6.60;4.07;;;27.30;70.00;;;;;;5018335;28;20079;-79
2021/06/26 11:06:17;;;;;;;7.50;4.90;;;27.20;69.90;;;;;;5020503;28;20029;-79
2021/06/26 11:09:04;;;;;;;6.97;4.07;;;27.40;69.70;;;;;;5018626;28;20029;-78
2021/06/26 11:11:50;;;;;;;7.88;5.40;;;27.50;69.20;;;;;;5020435;28;20030;-78
2021/06/26 11:14:21;;;;;;;14.82;7.43;;;27.70;67.30;;;;;;5021031;28;20386;-78
2021/06/26 11:16:50;;;;;;;6.75;4.93;;;27.40;68.80;;;;;;5018334;28;20022;-78
2021/06/26 11:19:16;;;;;;;7.47;4.40;;;27.70;69.70;;;;;;5020862;28;20079;-79
2021/06/26 11:21:45;;;;;;;7.50;4.68;;;28.10;68.80;;;;;;5019545;28;20026;-79
2021/06/26 11:24:12;;;;;;;6.18;4.13;;;28.10;65.80;;;;;;5020610;28;20037;-79
2021/06/26 11:26:47;;;;;;;6.57;4.25;;;28.40;64.90;;;;;;5019373;28;20057;-79
2021/06/26 11:29:22;;;;;;;9.80;4.75;;;29.00;65.30;;;;;;5016328;28;20497;-78
2021/06/26 11:31:48;;;;;;;9.88;5.88;;;29.10;63.70;;;;;;5015635;28;20034;-79
2021/06/26 11:34:13;;;;;;;6.93;4.65;;;29.10;61.90;;;;;;5019898;28;20395;-79
2021/06/26 11:36:39;;;;;;;7.70;4.38;;;29.00;64.40;;;;;;5007705;28;20093;-79
2021/06/26 11:39:05;;;;;;;8.15;4.50;;;28.90;63.20;;;;;;4999861;28;20057;-79
2021/06/26 11:41:31;;;;;;;12.30;5.20;;;28.60;63.00;;;;;;5013107;28;20018;-79
2021/06/26 11:43:56;;;;;;;6.97;4.50;;;28.20;63.70;;;;;;5020318;28;20022;-79
2021/06/26 11:46:22;;;;;;;7.57;4.18;;;27.80;63.80;;;;;;5020617;28;20033;-79
2021/06/26 11:48:50;;;;;;;4.93;3.80;;;27.60;65.10;;;;;;5019362;28;20026;-79
2021/06/26 11:51:16;;;;;;;5.88;4.32;;;27.50;65.30;;;;;;5003812;28;20029;-79
2021/06/26 11:53:43;;;;;;;5.28;3.67;;;27.30;64.70;;;;;;5001578;28;20041;-79
2021/06/26 11:56:12;;;;;;;8.77;4.43;;;27.10;65.50;;;;;;5001063;28;20030;-80
2021/06/26 11:58:51;;;;;;;5.88;4.38;;;27.00;68.50;;;;;;4998965;28;20026;-79
2021/06/26 12:01:26;;;;;;;9.38;4.35;;;27.00;67.40;;;;;;4999686;28;20022;-79
2021/06/26 12:03:52;;;;;;;7.10;4.10;;;27.10;65.90;;;;;;5012496;28;20022;-79
2021/06/26 12:06:18;;;;;;;4.85;3.13;;;27.30;64.90;;;;;;5019681;28;20021;-79
2021/06/26 12:08:52;;;;;;;6.47;3.50;;;28.20;65.20;;;;;;5019120;28;20034;-79
2021/06/26 12:11:25;;;;;;;5.53;3.22;;;29.90;63.60;;;;;;5018922;28;20037;-79
2021/06/26 12:13:54;;;;;;;6.70;3.15;;;28.50;61.70;;;;;;5020112;28;20100;-79
2021/06/26 12:16:21;;;;;;;5.60;2.95;;;28.40;58.70;;;;;;5014830;28;20476;-79
2021/06/26 12:18:53;;;;;;;13.20;4.47;;;28.70;61.70;;;;;;4999704;28;20018;-79
2021/06/26 12:21:21;;;;;;;7.80;3.85;;;29.00;59.40;;;;;;5001091;28;20018;-79
2021/06/26 12:23:48;;;;;;;6.63;3.30;;;29.00;58.20;;;;;;5008162;28;20022;-79
2021/06/26 12:26:17;;;;;;;5.75;2.67;;;29.10;58.40;;;;;;5020911;28;20057;-79
2021/06/26 12:28:43;;;;;;;5.93;3.55;;;29.10;59.10;;;;;;5015942;28;20026;-80
2021/06/26 12:31:09;;;;;;;12.57;3.47;;;29.40;58.60;;;;;;5016187;28;20491;-81
2021/06/26 12:33:35;;;;;;;5.05;3.60;;;29.50;57.30;;;;;;4999617;28;20061;-81